Time;durP1;ratioP1;P1;durP2;ratioP2;P2;SDS_P1;SDS_P2;PMS_P1;PMS_P2;Temp;Humidity;BMP_temperature;BMP_pressure;BME280_temperature;BME280_humidity;BME280_pressure;Samples;Min_cycle;Max_cycle;Signal;HPM_P1;HPM_P2
2021/06/01 00:01:43;;;;;;;2.92;0.90;;;18.90;51.90;;;;;;4314071;33;20079;-35
2021/06/01 00:04:10;;;;;;;8.18;2.35;;;18.90;52.00;;;;;;4326128;33;20158;-36
2021/06/01 00:06:38;;;;;;;2.60;1.10;;;18.90;52.00;;;;;;4326365;33;20091;-35
2021/06/01 00:09:07;;;;;;;5.37;2.08;;;18.90;51.90;;;;;;4326196;33;20192;-35
2021/06/01 00:11:34;;;;;;;9.82;2.30;;;19.00;52.00;;;;;;4326377;33;20086;-34
2021/06/01 00:14:00;;;;;;;6.62;4.20;;;19.00;52.00;;;;;;4325705;33;20071;-35
2021/06/01 00:16:27;;;;;;;7.03;2.72;;;19.00;51.90;;;;;;4325849;33;20645;-35
2021/06/01 00:18:54;;;;;;;3.00;1.65;;;19.00;51.90;;;;;;4325807;33;20095;-35
2021/06/01 00:21:20;;;;;;;5.45;1.00;;;19.00;51.80;;;;;;4325960;33;20156;-35
2021/06/01 00:23:48;;;;;;;1.58;1.05;;;19.00;51.90;;;;;;4320816;33;20525;-34
2021/06/01 00:26:14;;;;;;;5.30;3.42;;;19.10;51.90;;;;;;4340605;33;20058;-36
2021/06/01 00:28:41;;;;;;;4.72;3.60;;;19.00;51.80;;;;;;4328500;33;20079;-35
2021/06/01 00:31:09;;;;;;;2.62;1.52;;;19.00;51.90;;;;;;4328236;33;20106;-35
2021/06/01 00:33:35;;;;;;;2.10;0.88;;;19.00;52.00;;;;;;4328894;33;20106;-35
2021/06/01 00:36:02;;;;;;;1.62;1.12;;;19.10;52.00;;;;;;4331569;33;20183;-36
2021/06/01 00:38:28;;;;;;;1.00;0.73;;;19.10;51.80;;;;;;4347347;32;20055;-34
2021/06/01 00:40:55;;;;;;;5.57;3.05;;;19.10;51.80;;;;;;4360962;32;20058;-36
2021/06/01 00:43:21;;;;;;;4.20;2.83;;;19.10;51.90;;;;;;4334809;32;20082;-35
2021/06/01 00:45:48;;;;;;;3.05;2.20;;;19.10;51.90;;;;;;4360720;32;20178;-34
2021/06/01 00:48:14;;;;;;;4.53;2.42;;;19.10;51.90;;;;;;4361395;32;20150;-34
2021/06/01 00:50:41;;;;;;;0.77;0.60;;;19.10;51.80;;;;;;4360688;32;20514;-34
2021/06/01 00:53:08;;;;;;;2.47;1.48;;;19.10;51.70;;;;;;4360723;32;20082;-34
2021/06/01 00:55:35;;;;;;;2.67;1.37;;;19.10;51.70;;;;;;4360953;32;20078;-35
2021/06/01 00:58:01;;;;;;;6.35;2.40;;;19.10;51.70;;;;;;4360773;32;20067;-35
2021/06/01 01:02:57;;;;;;;4.93;2.45;;;19.10;51.90;;;;;;4360521;32;20085;-36
2021/06/01 01:05:28;;;;;;;2.45;1.33;;;19.10;52.00;;;;;;4346730;32;20447;-35
2021/06/01 01:08:34;;;;;;;5.10;3.33;;;19.10;52.00;;;;;;4347180;32;20544;-36
2021/06/01 01:11:16;;;;;;;4.45;2.58;;;19.10;51.90;;;;;;4351017;32;20050;-36
2021/06/01 01:14:26;;;;;;;3.67;1.73;;;19.20;52.00;;;;;;4335439;32;20150;-37
2021/06/01 01:17:02;;;;;;;4.95;1.90;;;19.20;51.90;;;;;;4360481;32;20069;-35
2021/06/01 01:20:08;;;;;;;3.87;1.20;;;19.20;51.80;;;;;;4346911;32;20078;-35
2021/06/01 01:22:42;;;;;;;2.53;1.17;;;19.20;51.80;;;;;;4360646;32;20135;-36
2021/06/01 01:25:47;;;;;;;2.78;2.08;;;19.30;51.60;;;;;;4329071;33;20059;-35
2021/06/01 01:29:00;;;;;;;3.55;2.58;;;19.30;51.60;;;;;;4314004;33;20143;-36
2021/06/01 01:31:59;;;;;;;3.45;2.28;;;19.30;51.60;;;;;;4269239;33;20078;-36
2021/06/01 01:34:26;;;;;;;5.80;4.00;;;19.40;51.50;;;;;;4240668;33;20061;-36
2021/06/01 01:36:53;;;;;;;7.32;3.45;;;19.40;51.40;;;;;;4229292;33;20172;-35
2021/06/01 01:39:19;;;;;;;2.22;1.50;;;19.50;51.50;;;;;;4229247;33;20069;-36
2021/06/01 01:41:45;;;;;;;3.67;1.60;;;19.60;51.40;;;;;;4229344;33;20557;-36
2021/06/01 01:44:14;;;;;;;3.90;2.97;;;19.80;51.00;;;;;;4228746;33;20175;-36
2021/06/01 01:49:21;;;;;;;1.25;0.68;;;20.10;50.20;;;;;;4240428;33;20520;-34
2021/06/01 01:51:53;;;;;;;3.83;2.72;;;20.20;49.80;;;;;;4228873;33;20073;-36
2021/06/01 01:54:25;;;;;;;4.00;1.92;;;20.30;49.20;;;;;;4229022;33;20101;-36
2021/06/01 01:57:05;;;;;;;1.37;1.27;;;20.40;48.90;;;;;;4229302;33;20065;-35
2021/06/01 01:59:32;;;;;;;4.00;2.87;;;20.50;48.80;;;;;;4240632;33;20180;-36
2021/06/01 02:01:58;;;;;;;10.48;2.05;;;20.60;48.70;;;;;;4228671;33;20103;-35
2021/06/01 02:04:28;;;;;;;3.17;2.33;;;20.70;48.40;;;;;;4228895;33;20092;-35
2021/06/01 02:06:55;;;;;;;4.35;3.00;;;20.70;48.20;;;;;;4246016;33;20467;-36
2021/06/01 02:09:21;;;;;;;5.97;3.90;;;20.80;48.10;;;;;;4298704;33;20092;-36
2021/06/01 02:11:48;;;;;;;6.55;4.05;;;20.90;48.10;;;;;;4327130;33;20074;-37
2021/06/01 02:14:15;;;;;;;7.03;4.43;;;21.00;47.90;;;;;;4329312;33;20062;-36
2021/06/01 02:16:42;;;;;;;7.12;4.97;;;21.10;47.80;;;;;;4303514;33;20143;-36
2021/06/01 02:19:14;;;;;;;4.50;2.78;;;21.20;48.30;;;;;;4329347;33;20094;-37
2021/06/01 02:25:08;;;;;;;4.00;3.53;;;21.40;47.00;;;;;;4357906;32;20064;-36
2021/06/01 02:27:46;;;;;;;9.10;3.30;;;21.60;46.50;;;;;;4358730;32;20061;-35
2021/06/01 02:30:18;;;;;;;9.93;3.72;;;21.70;46.60;;;;;;4345424;32;20051;-35
2021/06/01 02:32:46;;;;;;;7.15;2.03;;;21.90;46.00;;;;;;4345928;32;20069;-35
2021/06/01 02:35:16;;;;;;;6.60;3.83;;;22.00;45.90;;;;;;4359155;32;20089;-37
2021/06/01 02:37:46;;;;;;;5.87;2.80;;;22.10;45.40;;;;;;4359287;32;20063;-36
2021/06/01 02:40:15;;;;;;;4.37;2.35;;;22.20;45.30;;;;;;4358927;32;20071;-37
2021/06/01 02:42:42;;;;;;;4.20;2.70;;;22.30;45.30;;;;;;4359255;32;20202;-35
2021/06/01 02:45:11;;;;;;;10.88;5.45;;;22.40;44.90;;;;;;4359218;32;20568;-36
2021/06/01 02:47:38;;;;;;;3.28;1.60;;;22.50;44.90;;;;;;4332920;32;20482;-36
2021/06/01 02:50:09;;;;;;;6.12;3.45;;;22.70;44.80;;;;;;4358737;32;20066;-36
2021/06/01 02:52:35;;;;;;;6.70;4.32;;;22.90;44.10;;;;;;4345353;32;20537;-36
2021/06/01 02:55:03;;;;;;;1.83;0.90;;;23.20;43.50;;;;;;4344987;32;20054;-35
2021/06/01 02:57:30;;;;;;;1.12;0.77;;;23.40;43.70;;;;;;4358208;32;20149;-35
2021/06/01 02:59:56;;;;;;;8.05;2.55;;;23.60;42.30;;;;;;4344828;32;20070;-36
2021/06/01 03:02:26;;;;;;;5.47;2.37;;;23.80;41.90;;;;;;4345032;32;20184;-37
2021/06/01 03:04:52;;;;;;;5.15;3.22;;;24.00;41.70;;;;;;4345391;32;20162;-36
2021/06/01 03:07:20;;;;;;;5.55;2.92;;;24.20;41.10;;;;;;4358821;32;20085;-36
2021/06/01 03:09:46;;;;;;;7.62;4.22;;;24.30;40.60;;;;;;4358733;32;20062;-36
2021/06/01 03:12:34;;;;;;;8.43;4.00;;;24.40;40.40;;;;;;4358509;32;21081;-36
2021/06/01 03:15:00;;;;;;;5.62;3.00;;;24.40;40.60;;;;;;4358463;32;20063;-35
2021/06/01 03:17:27;;;;;;;12.90;5.80;;;24.50;40.40;;;;;;4358572;32;20462;-35
2021/06/01 03:19:53;;;;;;;3.47;2.40;;;24.40;40.30;;;;;;4359031;32;20066;-36
2021/06/01 03:22:20;;;;;;;7.85;3.67;;;24.40;40.20;;;;;;4358742;32;20066;-35
2021/06/01 03:24:47;;;;;;;4.55;2.30;;;24.40;40.30;;;;;;4345181;32;20094;-35
2021/06/01 03:27:13;;;;;;;3.08;1.20;;;24.50;40.30;;;;;;4343347;32;20051;-34
2021/06/01 03:29:40;;;;;;;9.90;4.10;;;24.40;40.10;;;;;;4343385;33;20071;-36
2021/06/01 03:32:07;;;;;;;3.12;1.17;;;24.40;40.20;;;;;;4343371;33;20058;-35
2021/06/01 03:34:34;;;;;;;3.22;1.95;;;24.30;40.20;;;;;;4343780;32;20110;-35
2021/06/01 03:37:01;;;;;;;7.37;2.95;;;24.20;40.30;;;;;;4329412;33;20097;-36
2021/06/01 03:39:30;;;;;;;4.82;2.15;;;24.10;40.40;;;;;;4296798;33;20076;-36
2021/06/01 03:41:57;;;;;;;3.17;1.15;;;24.10;40.70;;;;;;4296992;33;20105;-36
2021/06/01 03:44:23;;;;;;;3.00;1.35;;;24.10;40.60;;;;;;4296859;33;20609;-36
2021/06/01 03:46:50;;;;;;;8.40;3.17;;;24.10;40.70;;;;;;4297488;33;20079;-36
2021/06/01 03:49:16;;;;;;;6.87;1.87;;;24.20;40.70;;;;;;4296943;33;20083;-34
2021/06/01 03:51:43;;;;;;;2.15;1.35;;;24.10;40.20;;;;;;4296595;33;20084;-34
2021/06/01 03:54:09;;;;;;;5.15;2.00;;;24.00;40.30;;;;;;4296716;33;20079;-36
2021/06/01 03:56:36;;;;;;;5.47;1.73;;;24.00;40.20;;;;;;4296744;33;20142;-36
2021/06/01 03:59:04;;;;;;;4.37;1.50;;;23.90;40.30;;;;;;4296950;33;20544;-36
2021/06/01 04:01:31;;;;;;;11.27;3.47;;;24.00;40.70;;;;;;4297230;33;20278;-37
2021/06/01 04:03:58;;;;;;;5.75;3.20;;;23.90;40.40;;;;;;4296547;33;20079;-35
2021/06/01 04:06:24;;;;;;;2.62;1.98;;;24.00;40.60;;;;;;4297050;33;20151;-36
2021/06/01 04:08:50;;;;;;;5.05;2.72;;;24.00;40.60;;;;;;4296595;33;20094;-36
2021/06/01 04:11:19;;;;;;;16.50;4.68;;;24.00;40.70;;;;;;4336180;33;20066;-37
2021/06/01 04:13:46;;;;;;;2.53;1.80;;;24.10;40.80;;;;;;4329223;33;20515;-36
2021/06/01 04:16:12;;;;;;;2.72;1.12;;;24.10;40.40;;;;;;4342845;33;20166;-35
2021/06/01 04:18:40;;;;;;;1.87;0.75;;;24.20;40.10;;;;;;4329190;33;20236;-35
2021/06/01 04:21:07;;;;;;;4.30;2.28;;;24.20;40.00;;;;;;4343087;32;20451;-35
2021/06/01 04:23:33;;;;;;;5.25;1.42;;;24.20;40.20;;;;;;4348039;32;20090;-36
2021/06/01 04:26:00;;;;;;;5.70;1.42;;;24.20;40.10;;;;;;4357732;32;20102;-35
2021/06/01 04:28:26;;;;;;;2.72;1.23;;;24.30;40.00;;;;;;4357946;32;20069;-35
2021/06/01 04:30:53;;;;;;;4.75;2.00;;;24.30;39.90;;;;;;4328942;33;20130;-35
2021/06/01 04:33:19;;;;;;;3.65;1.23;;;24.40;40.10;;;;;;4343088;32;20162;-35
2021/06/01 04:35:46;;;;;;;6.32;1.77;;;24.40;39.70;;;;;;4342615;32;20055;-36
2021/06/01 04:38:12;;;;;;;8.48;3.45;;;24.50;39.70;;;;;;4341424;33;20079;-37
2021/06/01 04:40:39;;;;;;;3.97;1.58;;;24.60;39.90;;;;;;4342758;32;20530;-35
2021/06/01 04:43:05;;;;;;;4.97;2.30;;;24.60;39.60;;;;;;4342740;32;20546;-36
2021/06/01 04:45:31;;;;;;;4.22;1.85;;;24.70;39.20;;;;;;4342259;32;20526;-37
2021/06/01 04:47:58;;;;;;;2.75;1.80;;;24.70;39.10;;;;;;4341320;33;20070;-35
2021/06/01 04:50:25;;;;;;;3.58;1.95;;;24.70;38.90;;;;;;4342739;32;20067;-34
2021/06/01 04:52:52;;;;;;;5.40;2.62;;;24.60;39.00;;;;;;4342628;32;20089;-36
2021/06/01 04:55:18;;;;;;;3.67;1.25;;;24.50;39.20;;;;;;4342642;32;20051;-36
2021/06/01 04:57:45;;;;;;;2.60;1.60;;;24.40;39.40;;;;;;4342754;32;20069;-36
2021/06/01 05:00:12;;;;;;;4.20;2.35;;;24.30;39.60;;;;;;4342684;32;20157;-37
2021/06/01 05:02:38;;;;;;;5.28;3.17;;;24.30;39.70;;;;;;4342321;33;20545;-37
2021/06/01 05:05:06;;;;;;;4.65;2.35;;;24.20;39.90;;;;;;4342219;32;20071;-36
2021/06/01 05:07:33;;;;;;;3.45;2.50;;;24.10;40.10;;;;;;4343043;32;20105;-37
2021/06/01 05:10:01;;;;;;;6.37;3.58;;;24.10;40.30;;;;;;4342648;32;20054;-37
2021/06/01 05:12:30;;;;;;;5.47;2.42;;;24.10;40.30;;;;;;4342813;32;20103;-36
2021/06/01 05:14:57;;;;;;;3.78;3.15;;;24.00;40.40;;;;;;4343222;32;20542;-37
2021/06/01 05:17:24;;;;;;;3.37;2.65;;;24.10;40.20;;;;;;4342637;32;20059;-37
2021/06/01 05:19:50;;;;;;;2.80;1.83;;;24.00;40.30;;;;;;4343204;32;20639;-37
2021/06/01 05:22:17;;;;;;;5.40;3.80;;;24.10;40.50;;;;;;4344815;32;20070;-37
2021/06/01 05:24:44;;;;;;;2.70;1.10;;;24.10;40.40;;;;;;4332160;32;20074;-36
2021/06/01 05:27:12;;;;;;;4.72;3.42;;;24.20;40.30;;;;;;4330526;33;20079;-37
2021/06/01 05:29:43;;;;;;;4.53;2.92;;;24.30;40.30;;;;;;4328699;33;20068;-36
2021/06/01 05:32:52;;;;;;;6.43;1.58;;;24.50;40.20;;;;;;4330446;33;20101;-37
2021/06/01 05:35:01;;;;;;;5.47;1.77;;;24.70;39.90;;;;;;4330450;33;20078;-37
2021/06/01 05:37:36;;;;;;;3.22;1.25;;;24.80;39.40;;;;;;4329680;33;20059;-38
2021/06/01 05:40:04;;;;;;;1.70;1.37;;;24.90;39.30;;;;;;4330168;33;20552;-38
2021/06/01 05:42:31;;;;;;;3.30;2.33;;;25.00;38.90;;;;;;4329274;33;20097;-38
2021/06/01 05:44:57;;;;;;;2.53;1.50;;;25.10;38.80;;;;;;4330331;33;20087;-39
2021/06/01 05:47:24;;;;;;;2.85;1.10;;;25.20;39.00;;;;;;4330318;33;20074;-38
2021/06/01 05:49:50;;;;;;;8.70;1.23;;;25.30;38.40;;;;;;4329933;33;20518;-38
2021/06/01 05:52:16;;;;;;;3.33;1.85;;;25.40;38.50;;;;;;4330499;33;20597;-38
2021/06/01 05:54:43;;;;;;;2.20;1.10;;;25.60;38.50;;;;;;4330034;33;20085;-38
2021/06/01 05:57:10;;;;;;;5.80;2.37;;;25.80;38.10;;;;;;4297700;33;20121;-38
2021/06/01 05:59:36;;;;;;;3.05;1.52;;;26.00;38.00;;;;;;4274030;33;20083;-38
2021/06/01 06:02:03;;;;;;;5.25;1.80;;;26.20;37.80;;;;;;4298216;33;20090;-38
2021/06/01 06:04:30;;;;;;;4.47;0.98;;;26.40;37.30;;;;;;4298906;33;20138;-37
2021/06/01 06:06:56;;;;;;;3.85;2.12;;;26.80;36.60;;;;;;4298280;33;20222;-37
2021/06/01 06:09:22;;;;;;;2.62;2.37;;;27.00;35.90;;;;;;4286496;33;20589;-37
2021/06/01 06:11:49;;;;;;;3.05;1.30;;;27.20;35.60;;;;;;4268797;33;20584;-37
2021/06/01 06:14:15;;;;;;;2.83;2.37;;;27.40;35.30;;;;;;4269294;33;20061;-37
2021/06/01 06:16:55;;;;;;;4.10;3.10;;;27.60;35.00;;;;;;4269353;33;20143;-37
2021/06/01 06:19:21;;;;;;;22.83;2.75;;;27.70;34.90;;;;;;4258567;33;20079;-37
2021/06/01 06:21:48;;;;;;;4.30;1.62;;;27.80;35.00;;;;;;4269373;33;20115;-37
2021/06/01 06:24:14;;;;;;;4.37;2.72;;;27.90;34.40;;;;;;4266630;33;20147;-37
2021/06/01 06:26:41;;;;;;;4.05;0.88;;;28.10;34.70;;;;;;4283365;33;20175;-37
2021/06/01 06:29:07;;;;;;;2.00;1.35;;;28.10;34.60;;;;;;4309288;33;20064;-38
2021/06/01 06:31:34;;;;;;;2.95;1.40;;;28.10;34.10;;;;;;4312014;33;20080;-37
2021/06/01 06:34:01;;;;;;;2.67;2.35;;;28.20;34.70;;;;;;4312596;33;20138;-38
2021/06/01 06:36:27;;;;;;;1.73;1.12;;;28.20;33.90;;;;;;4300307;33;20507;-38
2021/06/01 06:38:54;;;;;;;1.55;1.00;;;28.30;34.30;;;;;;4312500;33;20166;-39
2021/06/01 06:41:20;;;;;;;3.83;1.42;;;28.30;34.00;;;;;;4312592;33;20190;-37
2021/06/01 06:43:53;;;;;;;6.03;3.28;;;28.50;33.70;;;;;;4311989;33;20060;-38
2021/06/01 06:46:37;;;;;;;1.25;0.80;;;28.50;34.60;;;;;;4312769;33;20072;-41
2021/06/01 06:49:03;;;;;;;0.75;0.60;;;28.60;33.80;;;;;;4286921;33;20161;-39
2021/06/01 06:51:31;;;;;;;2.45;1.62;;;28.70;33.60;;;;;;4312552;33;20135;-38
2021/06/01 06:53:57;;;;;;;5.82;2.00;;;28.70;33.70;;;;;;4300667;33;20090;-38
2021/06/01 06:56:27;;;;;;;1.70;1.40;;;28.70;33.40;;;;;;4300465;33;20588;-38
2021/06/01 06:58:54;;;;;;;3.58;0.68;;;28.70;33.70;;;;;;4312508;33;20139;-37
2021/06/01 07:01:21;;;;;;;3.03;1.27;;;28.60;34.30;;;;;;4300297;33;20067;-36
2021/06/01 07:03:48;;;;;;;3.65;1.73;;;28.50;33.40;;;;;;4312178;33;20094;-37
2021/06/01 07:06:16;;;;;;;2.15;1.05;;;28.50;33.70;;;;;;4299779;33;20538;-36
2021/06/01 07:08:43;;;;;;;5.10;1.42;;;28.50;33.60;;;;;;4311979;33;20052;-36
2021/06/01 07:11:10;;;;;;;2.58;1.37;;;28.30;33.70;;;;;;4312191;33;20071;-37
2021/06/01 07:13:54;;;;;;;5.55;2.67;;;28.30;34.40;;;;;;4312461;33;20147;-37
2021/06/01 07:16:20;;;;;;;3.55;1.15;;;28.20;35.20;;;;;;4312133;33;20079;-37
2021/06/01 07:18:47;;;;;;;1.45;0.70;;;28.20;34.40;;;;;;4311283;33;20106;-37
2021/06/01 07:21:14;;;;;;;1.40;1.00;;;28.20;34.40;;;;;;4311862;33;20162;-36
2021/06/01 07:23:40;;;;;;;2.97;1.40;;;28.20;34.40;;;;;;4305411;33;20591;-37
2021/06/01 07:26:07;;;;;;;3.95;2.47;;;28.20;34.70;;;;;;4301923;33;20072;-37
2021/06/01 07:28:34;;;;;;;3.35;1.10;;;28.30;34.60;;;;;;4300028;33;20480;-36
2021/06/01 07:31:02;;;;;;;1.83;1.12;;;28.40;34.80;;;;;;4311430;33;20085;-39
2021/06/01 07:33:29;;;;;;;2.78;1.05;;;28.40;34.30;;;;;;4311941;33;20091;-37
2021/06/01 07:35:55;;;;;;;2.75;0.90;;;28.50;34.30;;;;;;4299383;33;20060;-37
2021/06/01 07:38:22;;;;;;;1.40;0.57;;;28.50;34.20;;;;;;4311459;33;20202;-38
2021/06/01 07:40:48;;;;;;;4.25;3.25;;;28.50;34.40;;;;;;4311414;33;20519;-37
2021/06/01 07:43:15;;;;;;;2.67;1.83;;;28.60;34.60;;;;;;4311011;33;20063;-38
2021/06/01 07:45:41;;;;;;;10.65;2.97;;;28.60;34.70;;;;;;4311543;33;20617;-38
2021/06/01 07:48:08;;;;;;;2.25;1.30;;;28.70;34.30;;;;;;4311535;33;20604;-38
2021/06/01 07:50:34;;;;;;;3.25;1.40;;;28.70;34.20;;;;;;4311978;33;20072;-38
2021/06/01 07:53:01;;;;;;;4.62;2.58;;;28.80;34.10;;;;;;4311512;33;20067;-38
2021/06/01 07:55:27;;;;;;;5.00;1.85;;;28.90;34.20;;;;;;4311936;33;20069;-37
2021/06/01 07:57:54;;;;;;;2.95;0.85;;;28.90;34.40;;;;;;4296900;33;20559;-37
2021/06/01 08:00:22;;;;;;;4.15;1.92;;;28.90;34.20;;;;;;4296763;33;20178;-38
2021/06/01 08:02:48;;;;;;;1.25;0.50;;;28.90;34.40;;;;;;4296492;33;20089;-37
2021/06/01 08:05:16;;;;;;;1.50;0.98;;;29.00;34.30;;;;;;4296684;33;20063;-37
2021/06/01 08:07:42;;;;;;;1.92;0.82;;;29.10;34.10;;;;;;4296188;33;20507;-37
2021/06/01 08:10:10;;;;;;;3.70;1.92;;;29.20;33.90;;;;;;4296255;33;20695;-37
2021/06/01 08:12:36;;;;;;;1.48;0.95;;;29.30;33.90;;;;;;4284405;33;20567;-38
2021/06/01 08:15:05;;;;;;;3.75;2.35;;;29.40;34.10;;;;;;4295807;33;20074;-38
2021/06/01 08:17:31;;;;;;;4.10;0.93;;;29.50;33.60;;;;;;4296806;33;20091;-37
2021/06/01 08:20:08;;;;;;;1.75;1.35;;;29.60;33.60;;;;;;4296582;33;20143;-38
2021/06/01 08:22:34;;;;;;;1.30;0.80;;;29.70;34.10;;;;;;4296358;33;20082;-37
2021/06/01 08:25:01;;;;;;;1.70;0.68;;;29.70;33.30;;;;;;4310564;33;20183;-38
2021/06/01 08:27:28;;;;;;;7.85;2.62;;;29.80;33.40;;;;;;4310717;33;20095;-38
2021/06/01 08:29:56;;;;;;;1.73;1.00;;;29.90;33.00;;;;;;4310383;33;20445;-36
2021/06/01 08:32:25;;;;;;;4.50;1.90;;;29.90;33.70;;;;;;4310509;33;20539;-38
2021/06/01 08:34:51;;;;;;;2.10;0.68;;;29.90;32.90;;;;;;4315997;33;20133;-36
2021/06/01 08:37:18;;;;;;;2.80;0.60;;;29.90;32.90;;;;;;4328025;33;20106;-38
2021/06/01 08:39:44;;;;;;;7.10;1.52;;;30.00;32.80;;;;;;4310210;33;20083;-37
2021/06/01 08:42:11;;;;;;;1.27;1.02;;;30.00;33.00;;;;;;4310825;33;20075;-38
2021/06/01 08:44:37;;;;;;;0.47;0.40;;;30.10;32.90;;;;;;4311095;33;20182;-39
2021/06/01 08:47:04;;;;;;;1.77;1.02;;;30.10;32.80;;;;;;4299448;33;20096;-39
2021/06/01 08:49:31;;;;;;;1.92;0.60;;;30.10;32.90;;;;;;4311112;33;20072;-38
2021/06/01 08:51:57;;;;;;;1.85;1.10;;;30.10;33.00;;;;;;4299404;33;20119;-38
2021/06/01 08:54:26;;;;;;;1.92;0.88;;;30.20;32.90;;;;;;4299458;33;20131;-37
2021/06/01 08:56:53;;;;;;;2.70;1.10;;;30.30;33.00;;;;;;4314041;33;20074;-41
2021/06/01 08:59:19;;;;;;;1.40;0.65;;;30.30;32.70;;;;;;4314052;33;20147;-38
2021/06/01 09:01:46;;;;;;;2.80;0.50;;;30.40;32.80;;;;;;4313449;33;20660;-38
2021/06/01 09:04:13;;;;;;;1.23;1.10;;;30.50;32.50;;;;;;4313780;33;20082;-39
2021/06/01 09:06:43;;;;;;;1.05;0.80;;;30.60;32.90;;;;;;4313787;33;20071;-38
2021/06/01 09:14:59;;;;;;;1.75;0.90;;;31.00;32.80;;;;;;4329500;33;20089;-38
2021/06/01 09:23:05;;;;;;;2.67;1.10;;;31.50;31.90;;;;;;4328904;33;20558;-36
2021/06/01 09:25:49;;;;;;;1.83;1.55;;;31.60;31.70;;;;;;4330400;33;20058;-39
2021/06/01 09:28:15;;;;;;;1.53;1.07;;;31.70;31.60;;;;;;4328677;33;20519;-37
2021/06/01 09:30:58;;;;;;;0.90;0.65;;;31.90;31.60;;;;;;4353810;32;20054;-38
2021/06/01 09:33:30;;;;;;;2.37;0.60;;;31.90;31.30;;;;;;4359909;32;20070;-38
2021/06/01 09:35:58;;;;;;;7.18;2.58;;;32.00;31.20;;;;;;4359619;32;20510;-38
2021/06/01 09:38:41;;;;;;;1.30;0.77;;;32.10;31.30;;;;;;4360311;32;20522;-39
2021/06/01 09:41:10;;;;;;;2.12;0.50;;;32.10;31.00;;;;;;4359870;32;20088;-37
2021/06/01 09:43:53;;;;;;;1.60;0.50;;;32.20;31.10;;;;;;4360196;32;20076;-37
2021/06/01 09:46:36;;;;;;;1.70;1.48;;;32.20;31.00;;;;;;4359415;32;20063;-38
2021/06/01 09:49:15;;;;;;;2.35;0.90;;;32.30;30.90;;;;;;4312787;33;20526;-37
2021/06/01 09:51:50;;;;;;;3.30;2.05;;;32.30;31.10;;;;;;4313425;33;20075;-38
2021/06/01 09:54:50;;;;;;;0.55;0.50;;;32.40;31.10;;;;;;4301875;33;20074;-38
2021/06/01 09:57:24;;;;;;;1.27;1.00;;;32.30;30.90;;;;;;4313248;33;20161;-37
2021/06/01 10:00:17;;;;;;;2.00;1.48;;;32.30;31.10;;;;;;4313222;33;20064;-37
2021/06/01 10:02:46;;;;;;;0.62;0.47;;;32.40;31.10;;;;;;4312913;33;20079;-39
2021/06/01 10:05:21;;;;;;;1.65;1.10;;;32.40;30.70;;;;;;4313333;33;20094;-39
2021/06/01 10:07:49;;;;;;;1.67;0.82;;;32.50;30.80;;;;;;4300651;33;20507;-37
2021/06/01 10:10:25;;;;;;;1.85;0.93;;;32.50;30.50;;;;;;4300979;33;20072;-37
2021/06/01 10:12:58;;;;;;;1.27;0.80;;;32.30;30.50;;;;;;4313136;33;20087;-37
2021/06/01 10:15:27;;;;;;;1.77;0.90;;;32.30;30.80;;;;;;4312465;33;20566;-37
2021/06/01 10:17:53;;;;;;;3.42;1.37;;;32.20;30.90;;;;;;4312739;33;20084;-38
2021/06/01 10:20:22;;;;;;;1.80;1.15;;;32.30;30.90;;;;;;4309724;33;20101;-38
2021/06/01 10:22:49;;;;;;;3.80;1.25;;;32.20;30.70;;;;;;4313853;33;20055;-37
2021/06/01 10:25:16;;;;;;;3.05;1.12;;;32.20;30.80;;;;;;4285625;33;20152;-38
2021/06/01 10:27:47;;;;;;;1.25;0.82;;;32.10;30.90;;;;;;4286555;33;20074;-38
2021/06/01 10:30:14;;;;;;;1.45;0.77;;;32.10;31.00;;;;;;4297779;33;20071;-37
2021/06/01 10:32:54;;;;;;;0.73;0.47;;;32.00;31.10;;;;;;4297399;33;20083;-38
2021/06/01 10:35:22;;;;;;;1.30;1.10;;;31.90;31.30;;;;;;4297885;33;20075;-37
2021/06/01 10:51:57;;;;;;;3.65;1.10;;;31.40;32.00;;;;;;4297422;33;20158;-37
2021/06/01 10:54:49;;;;;;;0.60;0.50;;;31.30;32.00;;;;;;4297507;33;20082;-36
2021/06/01 10:57:17;;;;;;;0.40;0.30;;;31.30;32.30;;;;;;4305514;33;20069;-37
2021/06/01 10:59:53;;;;;;;1.70;0.52;;;31.20;32.40;;;;;;4314157;33;20154;-38
2021/06/01 11:02:20;;;;;;;0.70;0.40;;;31.10;32.50;;;;;;4332427;32;20155;-38
2021/06/01 11:05:16;;;;;;;1.23;0.40;;;31.10;32.40;;;;;;4296991;33;20500;-37
2021/06/01 11:07:55;;;;;;;1.30;0.90;;;31.00;32.60;;;;;;4296425;33;20483;-38
2021/06/01 11:10:45;;;;;;;7.72;1.00;;;30.90;32.70;;;;;;4297966;33;20072;-38
2021/06/01 11:13:17;;;;;;;1.60;0.88;;;30.90;33.00;;;;;;4297311;33;20068;-37
2021/06/01 11:15:53;;;;;;;0.57;0.37;;;30.80;33.20;;;;;;4297671;33;20067;-37
2021/06/01 11:18:33;;;;;;;2.37;0.52;;;30.80;33.00;;;;;;4285414;33;20177;-37
2021/06/01 11:35:31;;;;;;;0.60;0.40;;;30.40;33.60;;;;;;4295585;33;20550;-37
2021/06/01 11:41:05;;;;;;;0.90;0.40;;;30.10;33.90;;;;;;4311217;33;20077;-38
2021/06/01 11:43:32;;;;;;;1.00;0.62;;;30.00;34.10;;;;;;4311395;33;20118;-38
2021/06/01 11:46:23;;;;;;;0.80;0.60;;;29.90;34.20;;;;;;4311154;33;20142;-38
2021/06/01 11:51:26;;;;;;;2.58;0.50;;;29.80;34.30;;;;;;4311941;33;20070;-36
2021/06/01 11:54:13;;;;;;;1.27;0.50;;;29.70;34.40;;;;;;4296541;33;20079;-39
2021/06/01 12:04:53;;;;;;;1.48;0.73;;;29.20;35.10;;;;;;4296782;33;20074;-38
2021/06/01 12:19:07;;;;;;;3.22;1.17;;;28.80;35.60;;;;;;4340059;33;20125;-37
2021/06/01 12:21:40;;;;;;;1.48;1.05;;;28.80;35.70;;;;;;4340173;32;20507;-38
2021/06/01 12:24:14;;;;;;;0.73;0.32;;;28.80;35.80;;;;;;4331381;33;20218;-37
2021/06/01 12:32:28;;;;;;;0.73;0.50;;;28.80;35.80;;;;;;4342984;33;20551;-38
2021/06/01 12:43:45;;;;;;;1.50;0.70;;;28.70;35.90;;;;;;4345331;32;20094;-37
2021/06/01 13:20:33;;;;;;;1.98;0.55;;;28.70;35.70;;;;;;4344990;33;20102;-38
2021/06/01 13:37:58;;;;;;;3.03;0.40;;;28.90;35.60;;;;;;4348207;32;20081;-37
2021/06/01 13:40:21;;;;;;;0.35;0.30;;;28.90;35.50;;;;;;4358879;32;20074;-38
2021/06/01 13:46:21;;;;;;;0.57;0.30;;;28.90;35.30;;;;;;4359700;32;20051;-37
2021/06/01 13:59:55;;;;;;;1.05;0.50;;;29.00;34.90;;;;;;4316457;33;20063;-37
2021/06/01 14:11:28;;;;;;;0.82;0.40;;;28.80;35.10;;;;;;4326953;33;20087;-36
2021/06/01 14:30:10;;;;;;;1.02;0.50;;;28.50;35.70;;;;;;4358665;32;20080;-38
2021/06/01 14:38:20;;;;;;;1.33;0.50;;;28.20;35.80;;;;;;4326498;33;20071;-37
2021/06/01 15:22:45;;;;;;;1.52;0.70;;;27.40;37.80;;;;;;4358317;32;20074;-37
2021/06/01 15:47:43;;;;;;;0.70;0.60;;;26.70;39.40;;;;;;4342463;32;20046;-37
2021/06/01 15:49:50;;;;;;;3.20;0.80;;;26.40;39.80;;;;;;4342953;32;20653;-39
2021/06/01 16:23:52;;;;;;;1.20;0.77;;;25.70;40.90;;;;;;4342498;32;20058;-37
2021/06/01 16:31:24;;;;;;;1.12;0.80;;;25.60;41.00;;;;;;4356982;32;20527;-36
2021/06/01 16:42:07;;;;;;;9.98;1.12;;;25.40;41.40;;;;;;4357056;32;20099;-36
2021/06/01 17:03:47;;;;;;;6.72;0.82;;;25.20;41.70;;;;;;4357058;32;20593;-38
2021/06/01 17:06:22;;;;;;;4.65;0.62;;;25.20;41.80;;;;;;4344737;32;20050;-37
2021/06/01 17:10:57;;;;;;;1.08;0.50;;;25.10;41.80;;;;;;4357083;32;20109;-37
2021/06/01 17:11:49;;;;;;;2.45;1.05;;;25.00;41.80;;;;;;4345233;32;20132;-37
2021/06/01 17:14:15;;;;;;;4.43;0.80;;;25.00;41.90;;;;;;4357248;32;20075;-37
2021/06/01 17:16:45;;;;;;;1.58;0.68;;;24.90;41.80;;;;;;4333195;32;20062;-37
2021/06/01 17:22:19;;;;;;;0.55;0.37;;;24.90;41.90;;;;;;4360129;32;20063;-37
2021/06/01 17:30:46;;;;;;;1.50;0.68;;;24.70;41.90;;;;;;4344844;32;20067;-37
2021/06/01 17:36:05;;;;;;;5.10;0.70;;;24.60;42.10;;;;;;4344674;32;20054;-38
2021/06/01 17:38:32;;;;;;;6.35;0.60;;;24.50;42.20;;;;;;4344855;32;20083;-38
2021/06/01 17:41:01;;;;;;;1.10;0.50;;;24.40;42.40;;;;;;4344687;32;20478;-38
2021/06/01 17:43:31;;;;;;;1.62;0.50;;;24.30;42.50;;;;;;4344767;33;20478;-38
2021/06/01 17:46:02;;;;;;;1.62;0.50;;;24.30;42.60;;;;;;4345188;32;20498;-37
2021/06/01 17:48:33;;;;;;;0.45;0.45;;;24.20;42.70;;;;;;4345065;32;20067;-36
2021/06/01 17:51:02;;;;;;;4.00;0.40;;;24.20;42.90;;;;;;4345328;33;20529;-37
2021/06/01 17:53:29;;;;;;;2.55;0.47;;;24.10;42.80;;;;;;4345041;32;20058;-37
2021/06/01 17:55:55;;;;;;;2.47;0.68;;;24.10;43.00;;;;;;4318853;33;20063;-37
2021/06/01 17:58:25;;;;;;;1.27;0.65;;;24.00;43.10;;;;;;4330904;33;20063;-37
2021/06/01 18:00:52;;;;;;;1.48;0.70;;;24.00;43.20;;;;;;4344519;32;20065;-37
2021/06/01 18:03:19;;;;;;;0.28;0.20;;;24.00;43.30;;;;;;4344663;33;20137;-37
2021/06/01 18:05:48;;;;;;;1.35;0.80;;;23.90;43.40;;;;;;4344887;32;20229;-37
2021/06/01 18:08:36;;;;;;;2.05;0.93;;;23.90;43.50;;;;;;4344723;32;20063;-38
2021/06/01 18:29:15;;;;;;;1.27;0.57;;;23.90;43.60;;;;;;4301921;33;20157;-37
2021/06/01 18:37:36;;;;;;;1.37;0.55;;;23.70;43.70;;;;;;4312474;33;19981;-36
2021/06/01 19:11:57;;;;;;;4.35;1.62;;;23.80;42.60;;;;;;4297843;33;20196;-37
2021/06/01 19:21:26;;;;;;;1.00;0.47;;;23.70;42.60;;;;;;4287424;33;20092;-37
2021/06/01 19:50:27;;;;;;;1.40;0.40;;;22.70;43.90;;;;;;4347130;32;20177;-36
2021/06/01 19:52:55;;;;;;;0.37;0.30;;;22.70;44.00;;;;;;4358518;32;20076;-35